Aérodrome :
LOGIN :

S'inscrire | Disclaimer

   EN    FR    IT 

 










Légende :    VFR   VFR Marginal   IFR   IFR Intensif   IFR Très Intensif
Visi : 
Plafond : 
>= 8 km
>= 3000ft
5 à 8 km
1000 à 3000 ft
1500m à 5 km
500 à 1000 ft
800 à 1500m
200 à 500 ft
< 800m
< 200 ft
Symboles :   Orages  Brouillard  Fortes neiges  Fortes précipitations  Vent > 20 kt
SIGMETs :   Divers  Orages  Givrage  Turbulence  Onde Orograph.  Cendres Volcan.







- Altitude de l'aérodrome : 1516 ft
- Code IATA : AGB


EDMA - Augsburg

DERNIER METAR :
  • 172050Z AUTO 00000KT 6000 // FEW048/// OVC059/// 02/01 Q1024

METARs EXPIRÉS :
  • 172020Z AUTO 35001KT 5000 // OVC060/// 02/01 Q1024
  • 171950Z 33002KT 5000 BR FEW009 OVC061 02/01 Q1024
  • 171920Z 01001KT 6000 FEW009 OVC061 02/01 Q1025
  • 171850Z 02002KT 6000 FEW009 OVC062 02/01 Q1025
  • 171820Z 08002KT 6000 NSC 02/01 Q1024

TAF AMD TAF EDMA
Valide du 17 à 19h jusqu'au 18 à 03h UTC


171904Z 1719/1803 VRB02KT 6000 FEW007 BKN040
BECMG 1719/1723 4000 BR BKN007
Pas de NOTAMs connus pour ce terrain.



MET'MAP, la Météo Aéronautique d'un coup d'oeil ! - Copyright ORBIFLY Décembre 2007 - Disclaimer

ORBIFLY MET'MAP TEAM :

Programmation & Développement : Alexandra Zaïnal
Conception & Développement : Baudouin d'Aumeries
Co-Programmation & Développement : Marc-Olivier Méhu
Soutien technique & logistique : Manuel Goepfert

Contact : metmap@orbifly.com




SOURCES & CREDITS :

   NOAA